Terminal Aerodrome Forecast
Issued by NWS Atlanta, GA

Home | Current Version | Previous Version | Text Only | Print | Product List | Glossary On
Versions: 1 2 3 4 5 6 7 8 9 10 11 12 13 14 15 16 17 18 19 20 21 22 23 24 25 26 27 28 29 30 31 32 33 34 35 36 37 38 39 40 41 42 43 44
000
FTUS42 KFFC 161356 AAA
TAFATL
TAF AMD
KATL 161356Z 1614/1718 09012G18KT P6SM OVC005
     FM161700 09012G16KT P6SM VCSH OVC007
      TEMPO 1617/1621 4SM -SHRA BR BKN009
     FM170000 08009KT P6SM OVC007
     FM170300 08008KT 4SM -DZ BR OVC004
     FM170800 09006KT 5SM -SHRA BR OVC005
     FM171600 10007KT P6SM VCSH BKN007=

USA.gov is the U.S. government's official web portal to all federal, state and local government web resources and services.